createdAt,value
2017-04-27T00:00:20.676Z,1008.82
2017-04-27T00:01:30.335Z,1008.79
2017-04-27T00:02:40.882Z,1008.76
2017-04-27T00:03:51.186Z,1008.78
2017-04-27T00:05:01.475Z,1008.81
2017-04-27T00:06:11.754Z,1008.77
2017-04-27T00:07:21.728Z,1008.8
2017-04-27T00:08:31.941Z,1008.79
2017-04-27T00:09:42.225Z,1008.75
2017-04-27T00:10:52.504Z,1008.7
2017-04-27T00:12:02.814Z,1008.7
2017-04-27T00:13:12.787Z,1008.72
2017-04-27T00:14:23.322Z,1008.68
2017-04-27T00:15:33.291Z,1008.72
2017-04-27T00:16:43.266Z,1008.7
2017-04-27T00:17:53.579Z,1008.67
2017-04-27T00:19:03.860Z,1008.69
2017-04-27T00:20:14.383Z,1008.66
2017-04-27T00:21:24.660Z,1008.64
2017-04-27T00:22:34.939Z,1008.63
2017-04-27T00:23:44.911Z,1008.67
2017-04-27T00:24:55.202Z,1008.7
2017-04-27T00:26:05.734Z,1008.69
2017-04-27T00:27:16.035Z,1008.71
2017-04-27T00:28:26.317Z,1008.71
2017-04-27T00:29:36.596Z,1008.76
2017-04-27T00:30:46.259Z,1008.74
2017-04-27T00:31:56.846Z,1008.73
2017-04-27T00:33:07.137Z,1008.76
2017-04-27T00:34:16.792Z,1008.74
2017-04-27T00:35:27.069Z,1008.72
2017-04-27T00:36:37.037Z,1008.73
2017-04-27T00:37:47.005Z,1008.69
2017-04-27T00:38:56.666Z,1008.68
2017-04-27T00:40:06.630Z,1008.68
2017-04-27T00:41:16.911Z,1008.67
2017-04-27T00:42:26.875Z,1008.67
2017-04-27T00:43:37.417Z,1008.71
2017-04-27T00:44:47.688Z,1008.65
2017-04-27T00:45:57.661Z,1008.71
2017-04-27T00:47:08.188Z,1008.69
2017-04-27T00:48:18.150Z,1008.69
2017-04-27T00:49:28.695Z,1008.66
2017-04-27T00:50:38.983Z,1008.66
2017-04-27T00:51:49.263Z,1008.65
2017-04-27T00:52:59.238Z,1008.66
2017-04-27T00:54:09.516Z,1008.64
2017-04-27T00:55:19.732Z,1008.65
2017-04-27T00:56:30.047Z,1008.66
2017-04-27T00:57:40.031Z,1008.66
2017-04-27T00:58:50.316Z,1008.64
2017-04-27T01:00:00.589Z,1008.69
2017-04-27T01:01:11.177Z,1008.73
2017-04-27T01:02:21.461Z,1008.73
2017-04-27T01:03:31.775Z,1008.71
2017-04-27T01:04:42.055Z,1008.73
2017-04-27T01:05:51.732Z,1008.74
2017-04-27T01:07:01.983Z,1008.75
2017-04-27T01:08:12.278Z,1008.74
2017-04-27T01:09:22.255Z,1008.68
2017-04-27T01:10:32.227Z,1008.72
2017-04-27T01:11:42.524Z,1008.65
2017-04-27T01:12:52.485Z,1008.64
2017-04-27T01:14:02.773Z,1008.69
2017-04-27T01:15:12.750Z,1008.6
2017-04-27T01:16:22.412Z,1008.65
2017-04-27T01:17:32.696Z,1008.64
2017-04-27T01:18:43.284Z,1008.63
2017-04-27T01:19:53.584Z,1008.62
2017-04-27T01:21:03.563Z,1008.57
2017-04-27T01:22:13.852Z,1008.57
2017-04-27T01:23:23.833Z,1008.59
2017-04-27T01:24:34.360Z,1008.58
2017-04-27T01:25:44.650Z,1008.62
2017-04-27T01:26:54.927Z,1008.59
2017-04-27T01:28:04.909Z,1008.63
2017-04-27T01:29:15.201Z,1008.61
2017-04-27T01:30:25.418Z,1008.63
2017-04-27T01:31:35.384Z,1008.64
2017-04-27T01:32:45.676Z,1008.66
2017-04-27T01:33:55.958Z,1008.66
2017-04-27T01:35:06.251Z,1008.63
2017-04-27T01:36:16.479Z,1008.63
2017-04-27T01:37:26.763Z,1008.62
2017-04-27T01:38:36.739Z,1008.61
2017-04-27T01:39:47.026Z,1008.58
2017-04-27T01:40:57.315Z,1008.56
2017-04-27T01:42:07.842Z,1008.59
2017-04-27T01:43:18.124Z,1008.56
2017-04-27T01:44:28.092Z,1008.54
2017-04-27T01:45:38.060Z,1008.53
2017-04-27T01:46:47.735Z,1008.52
2017-04-27T01:47:58.316Z,1008.52
2017-04-27T01:49:08.604Z,1008.46
2017-04-27T01:50:18.575Z,1008.48
2017-04-27T01:51:28.862Z,1008.46
2017-04-27T01:52:39.176Z,1008.47
2017-04-27T01:53:49.720Z,1008.54
2017-04-27T01:55:00.008Z,1008.55
2017-04-27T01:56:10.309Z,1008.53
2017-04-27T01:57:20.291Z,1008.51
2017-04-27T01:58:30.575Z,1008.48
2017-04-27T01:59:41.116Z,1008.44
2017-04-27T02:00:51.397Z,1008.41
2017-04-27T02:02:01.696Z,1008.38
2017-04-27T02:03:11.972Z,1008.34
2017-04-27T02:04:21.638Z,1008.33
2017-04-27T02:05:31.857Z,1008.34
2017-04-27T02:06:41.837Z,1008.32
2017-04-27T02:07:51.809Z,1008.35
2017-04-27T02:09:01.774Z,1008.35
2017-04-27T02:10:12.059Z,1008.36
2017-04-27T02:11:22.278Z,1008.33
2017-04-27T02:12:32.564Z,1008.27
2017-04-27T02:13:42.558Z,1008.3
2017-04-27T02:14:52.541Z,1008.31
2017-04-27T02:16:02.830Z,1008.35
2017-04-27T02:17:13.050Z,1008.31
2017-04-27T02:18:23.345Z,1008.34
2017-04-27T02:19:33.646Z,1008.29
2017-04-27T02:20:43.934Z,1008.27
2017-04-27T02:21:54.216Z,1008.25
2017-04-27T02:23:04.438Z,1008.21
2017-04-27T02:24:14.516Z,1008.22
2017-04-27T02:25:24.803Z,1008.18
2017-04-27T02:26:35.393Z,1008.21
2017-04-27T02:27:45.689Z,1008.21
2017-04-27T02:28:56.234Z,1008.18
2017-04-27T02:30:06.537Z,1008.11
2017-04-27T02:31:16.852Z,1008.11
2017-04-27T02:32:26.822Z,1008.07
2017-04-27T02:33:37.117Z,1008.13
2017-04-27T02:34:47.657Z,1008.13
2017-04-27T02:35:57.941Z,1008.17
2017-04-27T02:37:07.905Z,1008.2
2017-04-27T02:38:17.904Z,1008.24
2017-04-27T02:39:28.182Z,1008.27
2017-04-27T02:40:38.744Z,1008.34
2017-04-27T02:41:49.016Z,1008.34
2017-04-27T02:42:59.300Z,1008.31
2017-04-27T02:44:09.299Z,1008.35
2017-04-27T02:45:19.267Z,1008.33
2017-04-27T02:46:29.802Z,1008.28
2017-04-27T02:47:40.102Z,1008.31
2017-04-27T02:48:50.390Z,1008.29
2017-04-27T02:50:00.676Z,1008.28
2017-04-27T02:51:10.650Z,1008.29
2017-04-27T02:52:20.869Z,1008.27
2017-04-27T02:53:31.152Z,1008.32
2017-04-27T02:54:41.438Z,1008.36
2017-04-27T02:55:51.745Z,1008.39
2017-04-27T02:57:02.021Z,1008.41
2017-04-27T02:58:12.256Z,1008.4
2017-04-27T02:59:22.542Z,1008.36
2017-04-27T03:00:33.149Z,1008.29
2017-04-27T03:01:43.436Z,1008.23
2017-04-27T03:02:53.720Z,1008.21
2017-04-27T03:04:03.938Z,1008.23
2017-04-27T03:05:13.901Z,1008.27
2017-04-27T03:06:23.872Z,1008.3
2017-04-27T03:07:34.155Z,1008.32
2017-04-27T03:08:44.448Z,1008.36
2017-04-27T03:09:54.985Z,1008.35
2017-04-27T03:11:04.952Z,1008.35
2017-04-27T03:12:15.232Z,1008.3
2017-04-27T03:13:25.516Z,1008.3
2017-04-27T03:14:35.803Z,1008.32
2017-04-27T03:15:46.343Z,1008.3
2017-04-27T03:16:56.646Z,1008.3
2017-04-27T03:18:06.620Z,1008.25
2017-04-27T03:19:16.909Z,1008.26
2017-04-27T03:20:27.201Z,1008.23
2017-04-27T03:21:37.521Z,1008.18
2017-04-27T03:22:47.485Z,1008.15
2017-04-27T03:23:57.455Z,1008.14
2017-04-27T03:25:07.741Z,1008.14
2017-04-27T03:26:17.719Z,1008.16
2017-04-27T03:27:27.942Z,1008.23
2017-04-27T03:28:37.925Z,1008.3
2017-04-27T03:29:47.898Z,1008.32
2017-04-27T03:30:57.866Z,1008.28
2017-04-27T03:32:08.142Z,1008.22
2017-04-27T03:33:18.367Z,1008.2
2017-04-27T03:34:28.668Z,1008.23
2017-04-27T03:35:38.643Z,1008.25
2017-04-27T03:36:48.612Z,1008.32
2017-04-27T03:37:58.896Z,1008.4
2017-04-27T03:39:09.434Z,1008.43
2017-04-27T03:40:19.395Z,1008.4
2017-04-27T03:41:29.680Z,1008.43
2017-04-27T03:42:39.962Z,1008.44
2017-04-27T03:43:49.943Z,1008.42
2017-04-27T03:45:00.479Z,1008.46
2017-04-27T03:46:10.772Z,1008.53
2017-04-27T03:47:21.066Z,1008.5
2017-04-27T03:48:31.354Z,1008.52
2017-04-27T03:49:41.625Z,1008.56
2017-04-27T03:50:52.154Z,1008.54
2017-04-27T03:52:02.438Z,1008.61
2017-04-27T03:53:12.717Z,1008.62
2017-04-27T03:54:23.008Z,1008.66
2017-04-27T03:55:33.302Z,1008.68
2017-04-27T03:56:43.835Z,1008.75
2017-04-27T03:57:54.119Z,1008.79
2017-04-27T03:59:04.404Z,1008.78
2017-04-27T04:00:14.688Z,1008.78
2017-04-27T04:01:24.346Z,1008.83
2017-04-27T04:02:34.872Z,1008.8
2017-04-27T04:03:44.846Z,1008.77
2017-04-27T04:04:54.826Z,1008.79
2017-04-27T04:06:05.105Z,1008.75
2017-04-27T04:07:15.424Z,1008.73
2017-04-27T04:08:25.651Z,1008.74
2017-04-27T04:09:35.312Z,1008.76
2017-04-27T04:10:45.589Z,1008.81
2017-04-27T04:11:55.874Z,1008.8
2017-04-27T04:13:06.149Z,1008.83
2017-04-27T04:14:16.432Z,1008.86
2017-04-27T04:15:26.421Z,1008.88
2017-04-27T04:16:36.711Z,1008.92
2017-04-27T04:17:46.689Z,1008.98
2017-04-27T04:18:56.979Z,1008.94
2017-04-27T04:20:07.519Z,1009
2017-04-27T04:21:17.805Z,1009
2017-04-27T04:22:28.100Z,1009.04
2017-04-27T04:23:38.079Z,1009.06
2017-04-27T04:24:48.073Z,1009.08
2017-04-27T04:25:58.619Z,1009.1
2017-04-27T04:27:08.593Z,1009.13
2017-04-27T04:28:18.563Z,1009.16
2017-04-27T04:29:28.844Z,1009.18
2017-04-27T04:30:39.132Z,1009.19
2017-04-27T04:31:49.354Z,1009.21
2017-04-27T04:32:59.638Z,1009.22
2017-04-27T04:34:09.922Z,1009.27
2017-04-27T04:35:19.888Z,1009.33
2017-04-27T04:36:29.879Z,1009.37
2017-04-27T04:37:40.098Z,1009.41
2017-04-27T04:38:50.071Z,1009.4
2017-04-27T04:39:59.436Z,1009.39
2017-04-27T04:41:09.405Z,1009.42
2017-04-27T04:42:19.694Z,1009.39
2017-04-27T04:43:30.277Z,1009.37
2017-04-27T04:44:40.558Z,1009.39
2017-04-27T04:45:50.840Z,1009.38
2017-04-27T04:47:01.140Z,1009.36
2017-04-27T04:48:11.424Z,1009.33
2017-04-27T04:49:21.965Z,1009.34
2017-04-27T04:50:32.248Z,1009.33
2017-04-27T04:51:42.533Z,1009.28
2017-04-27T04:52:52.846Z,1009.25
2017-04-27T04:54:03.139Z,1009.32
2017-04-27T04:55:13.693Z,1009.27
2017-04-27T04:56:23.975Z,1009.25
2017-04-27T04:57:34.273Z,1009.28
2017-04-27T04:58:44.566Z,1009.24
2017-04-27T04:59:54.849Z,1009.21
2017-04-27T05:01:05.142Z,1009.24
2017-04-27T05:02:15.122Z,1009.27
2017-04-27T05:03:25.405Z,1009.26
2017-04-27T05:04:35.688Z,1009.27
2017-04-27T05:05:45.974Z,1009.32
2017-04-27T05:06:56.509Z,1009.32
2017-04-27T05:08:06.483Z,1009.34
2017-04-27T05:09:16.790Z,1009.37
2017-04-27T05:10:27.077Z,1009.42
2017-04-27T05:11:37.058Z,1009.42
2017-04-27T05:12:47.649Z,1009.42
2017-04-27T05:13:57.931Z,1009.48
2017-04-27T05:15:07.912Z,1009.48
2017-04-27T05:16:18.196Z,1009.53
2017-04-27T05:17:28.480Z,1009.52
2017-04-27T05:18:39.064Z,1009.54
2017-04-27T05:19:49.393Z,1009.55
2017-04-27T05:20:59.370Z,1009.5
2017-04-27T05:22:09.353Z,1009.53
2017-04-27T05:23:19.648Z,1009.57
2017-04-27T05:24:29.870Z,1009.6
2017-04-27T05:25:40.196Z,1009.6
2017-04-27T05:26:50.167Z,1009.66
2017-04-27T05:28:00.457Z,1009.67
2017-04-27T05:29:10.746Z,1009.65
2017-04-27T05:30:21.338Z,1009.64
2017-04-27T05:31:31.313Z,1009.69
2017-04-27T05:32:41.604Z,1009.72
2017-04-27T05:33:51.275Z,1009.74
2017-04-27T05:35:01.573Z,1009.72
2017-04-27T05:36:11.809Z,1009.69
2017-04-27T05:37:21.781Z,1009.64
2017-04-27T05:38:32.063Z,1009.65
2017-04-27T05:39:42.362Z,1009.6
2017-04-27T05:40:52.681Z,1009.62
2017-04-27T05:42:02.922Z,1009.58
2017-04-27T05:43:13.234Z,1009.57
2017-04-27T05:44:23.548Z,1009.53
2017-04-27T05:45:33.855Z,1009.43
2017-04-27T05:46:44.373Z,1009.44
2017-04-27T05:47:54.955Z,1009.49
2017-04-27T05:49:05.242Z,1009.51
2017-04-27T05:50:15.533Z,1009.5
2017-04-27T05:51:25.819Z,1009.52
2017-04-27T05:52:35.792Z,1009.52
2017-04-27T05:53:46.359Z,1009.55
2017-04-27T05:54:56.688Z,1009.58
2017-04-27T05:56:07.089Z,1009.58
2017-04-27T05:57:17.376Z,1009.61
2017-04-27T05:58:27.698Z,1009.64
2017-04-27T05:59:37.980Z,1009.64
2017-04-27T06:00:48.279Z,1009.65
2017-04-27T06:01:58.587Z,1009.67
2017-04-27T06:03:08.878Z,1009.64
2017-04-27T06:04:18.873Z,1009.69
2017-04-27T06:05:29.098Z,1009.74
2017-04-27T06:06:39.388Z,1009.73
2017-04-27T06:07:49.686Z,1009.71
2017-04-27T06:08:59.998Z,1009.72
2017-04-27T06:10:09.992Z,1009.67
2017-04-27T06:11:20.228Z,1009.7
2017-04-27T06:12:30.218Z,1009.77
2017-04-27T06:13:40.554Z,1009.74
2017-04-27T06:14:50.898Z,1009.74
2017-04-27T06:16:01.214Z,1009.73
2017-04-27T06:17:11.877Z,1009.71
2017-04-27T06:18:21.875Z,1009.7
2017-04-27T06:19:32.441Z,1009.69
2017-04-27T06:20:42.737Z,1009.67
2017-04-27T06:21:53.030Z,1009.67
2017-04-27T06:23:03.276Z,1009.63
2017-04-27T06:24:13.575Z,1009.61
2017-04-27T06:25:23.881Z,1009.61
2017-04-27T06:26:34.250Z,1009.53
2017-04-27T06:27:44.554Z,1009.5
2017-04-27T06:28:54.798Z,1009.57
2017-04-27T06:30:05.104Z,1009.6
2017-04-27T06:31:15.412Z,1009.64
2017-04-27T06:32:25.414Z,1009.59
2017-04-27T06:33:35.725Z,1009.59
2017-04-27T06:34:46.276Z,1009.62
2017-04-27T06:35:56.265Z,1009.66
2017-04-27T06:37:05.663Z,1009.76
2017-04-27T06:38:15.649Z,1009.79
2017-04-27T06:39:25.937Z,1009.79
2017-04-27T06:40:36.184Z,1009.79
2017-04-27T06:41:46.474Z,1009.81
2017-04-27T06:42:56.459Z,1009.85
2017-04-27T06:44:06.451Z,1009.82
2017-04-27T06:45:16.793Z,1009.8
2017-04-27T06:46:26.714Z,1009.74
2017-04-27T06:47:37.018Z,1009.69
2017-04-27T06:48:46.404Z,1009.74
2017-04-27T06:49:56.786Z,1009.8
2017-04-27T06:51:06.542Z,1009.81
2017-04-27T06:52:16.548Z,1009.79
2017-04-27T06:53:26.559Z,1009.84
2017-04-27T06:54:36.863Z,1009.83
2017-04-27T06:55:46.946Z,1009.84
2017-04-27T06:56:57.244Z,1009.85
2017-04-27T06:58:07.796Z,1009.88
2017-04-27T06:59:17.802Z,1009.85
2017-04-27T07:00:28.091Z,1009.92
2017-04-27T07:01:38.406Z,1009.92
2017-04-27T07:02:48.837Z,1009.94
2017-04-27T07:03:59.094Z,1009.99
2017-04-27T07:05:09.403Z,1009.97
2017-04-27T07:06:20.072Z,1010.01
2017-04-27T07:07:30.503Z,1010.05
2017-04-27T07:08:40.804Z,1010.1
2017-04-27T07:09:51.376Z,1010.07
2017-04-27T07:11:01.381Z,1010.1
2017-04-27T07:12:11.688Z,1010.05
2017-04-27T07:13:21.685Z,1010.04
2017-04-27T07:14:31.989Z,1010.09
2017-04-27T07:15:42.281Z,1010.09
2017-04-27T07:16:52.605Z,1010.09
2017-04-27T07:18:02.906Z,1010.11
2017-04-27T07:19:13.205Z,1010.12
2017-04-27T07:20:23.200Z,1010.17
2017-04-27T07:21:34.056Z,1010.11
2017-04-27T07:22:44.366Z,1010.13
2017-04-27T07:23:54.680Z,1010.1
2017-04-27T07:25:04.978Z,1010.15
2017-04-27T07:26:15.277Z,1010.14
2017-04-27T07:27:25.831Z,1010.13
2017-04-27T07:28:36.139Z,1010.11
2017-04-27T07:29:46.449Z,1010.16
2017-04-27T07:30:56.755Z,1010.25
2017-04-27T07:32:07.236Z,1010.33
2017-04-27T07:33:17.467Z,1010.34
2017-04-27T07:34:27.777Z,1010.32
2017-04-27T07:35:37.760Z,1010.27
2017-04-27T07:36:47.738Z,1010.23
2017-04-27T07:37:58.415Z,1010.21
2017-04-27T07:39:08.666Z,1010.23
2017-04-27T07:40:18.685Z,1010.16
2017-04-27T07:41:28.991Z,1010.12
2017-04-27T07:42:39.291Z,1010.11
2017-04-27T07:43:49.616Z,1010.2
2017-04-27T07:45:00.167Z,1010.2
2017-04-27T07:46:10.145Z,1010.22
2017-04-27T07:47:20.456Z,1010.17
2017-04-27T07:48:30.804Z,1010.15
2017-04-27T07:49:41.103Z,1010.08
2017-04-27T07:50:51.648Z,1010.13
2017-04-27T07:52:01.647Z,1010.13
2017-04-27T07:53:11.996Z,1010.18
2017-04-27T07:54:22.307Z,1010.13
2017-04-27T07:55:32.602Z,1010.14
2017-04-27T07:56:43.155Z,1010.09
2017-04-27T07:57:53.133Z,1010.1
2017-04-27T07:59:03.139Z,1010.13
2017-04-27T08:00:13.445Z,1010.19
2017-04-27T08:01:23.746Z,1010.18
2017-04-27T08:02:34.004Z,1010.21
2017-04-27T08:03:44.319Z,1010.24
2017-04-27T08:04:54.650Z,1010.25
2017-04-27T08:06:04.945Z,1010.23
2017-04-27T08:07:14.928Z,1010.24
2017-04-27T08:08:25.529Z,1010.29
2017-04-27T08:09:35.863Z,1010.26
2017-04-27T08:10:46.154Z,1010.25
2017-04-27T08:11:56.167Z,1010.2
2017-04-27T08:13:06.203Z,1010.24
2017-04-27T08:14:16.437Z,1010.23
2017-04-27T08:15:26.738Z,1010.26
2017-04-27T08:16:36.724Z,1010.26
2017-04-27T08:17:47.025Z,1010.23
2017-04-27T08:18:57.066Z,1010.24
2017-04-27T08:20:07.691Z,1010.21
2017-04-27T08:21:17.989Z,1010.21
2017-04-27T08:22:28.286Z,1010.31
2017-04-27T08:23:38.589Z,1010.32
2017-04-27T08:24:48.890Z,1010.29
2017-04-27T08:25:59.128Z,1010.31
2017-04-27T08:27:08.833Z,1010.31
2017-04-27T08:28:19.172Z,1010.3
2017-04-27T08:29:29.183Z,1010.34
2017-04-27T08:30:39.483Z,1010.34
2017-04-27T08:31:50.089Z,1010.37
2017-04-27T08:33:00.446Z,1010.32
2017-04-27T08:34:10.497Z,1010.34
2017-04-27T08:35:20.818Z,1010.33
2017-04-27T08:36:31.105Z,1010.33
2017-04-27T08:37:41.346Z,1010.39
2017-04-27T08:38:51.700Z,1010.38
2017-04-27T08:40:02.009Z,1010.36
2017-04-27T08:41:11.689Z,1010.35
2017-04-27T08:42:21.979Z,1010.33
2017-04-27T08:43:32.531Z,1010.33
2017-04-27T08:44:42.889Z,1010.35
2017-04-27T08:45:52.876Z,1010.3
2017-04-27T08:47:03.174Z,1010.31
2017-04-27T08:48:13.479Z,1010.28
2017-04-27T08:49:24.031Z,1010.26
2017-04-27T08:50:34.326Z,1010.28
2017-04-27T08:51:43.994Z,1010.31
2017-04-27T08:52:53.670Z,1010.28
2017-04-27T08:54:03.967Z,1010.34
2017-04-27T08:55:14.515Z,1010.3
2017-04-27T08:56:24.821Z,1010.3
2017-04-27T08:57:35.115Z,1010.32
2017-04-27T08:58:45.106Z,1010.33
2017-04-27T08:59:55.095Z,1010.36
2017-04-27T09:01:05.642Z,1010.32
2017-04-27T09:02:15.327Z,1010.36
2017-04-27T09:03:25.638Z,1010.34
2017-04-27T09:04:35.692Z,1010.4
2017-04-27T09:05:45.977Z,1010.4
2017-04-27T09:06:56.343Z,1010.37
2017-04-27T09:08:06.642Z,1010.36
2017-04-27T09:09:16.635Z,1010.31
2017-04-27T09:10:26.936Z,1010.33
2017-04-27T09:11:37.232Z,1010.26
2017-04-27T09:12:47.779Z,1010.29
2017-04-27T09:13:58.080Z,1010.26
2017-04-27T09:15:08.390Z,1010.28
2017-04-27T09:16:18.693Z,1010.27
2017-04-27T09:17:28.685Z,1010.31
2017-04-27T09:18:39.247Z,1010.33
2017-04-27T09:19:49.597Z,1010.33
2017-04-27T09:20:59.885Z,1010.34
2017-04-27T09:22:10.183Z,1010.32
2017-04-27T09:23:20.188Z,1010.28
2017-04-27T09:24:30.808Z,1010.26
2017-04-27T09:25:40.500Z,1010.26
2017-04-27T09:26:50.799Z,1010.25
2017-04-27T09:28:01.094Z,1010.19
2017-04-27T09:29:11.388Z,1010.23
2017-04-27T09:30:21.329Z,1010.15
2017-04-27T09:31:31.636Z,1010.21
2017-04-27T09:32:41.951Z,1010.17
2017-04-27T09:33:52.303Z,1010.18
2017-04-27T09:35:02.595Z,1010.19
2017-04-27T09:36:13.096Z,1010.2
2017-04-27T09:37:22.776Z,1010.17
2017-04-27T09:38:32.886Z,1010.15
2017-04-27T09:39:43.230Z,1010.15
2017-04-27T09:40:53.542Z,1010.17
2017-04-27T09:42:03.784Z,1010.15
2017-04-27T09:43:14.095Z,1010.13
2017-04-27T09:44:24.124Z,1010.14
2017-04-27T09:45:34.416Z,1010.13
2017-04-27T09:46:44.422Z,1010.11
2017-04-27T09:47:54.989Z,1010.13
2017-04-27T09:49:05.029Z,1010.1
2017-04-27T09:50:15.339Z,1010.07
2017-04-27T09:51:25.328Z,1010.03
2017-04-27T09:52:34.714Z,1010.03
2017-04-27T09:53:44.964Z,1010
2017-04-27T09:54:54.967Z,1010
2017-04-27T09:56:05.281Z,1010
2017-04-27T09:57:14.954Z,1010.02
2017-04-27T09:58:24.973Z,1010.04
2017-04-27T09:59:34.899Z,1010.06
2017-04-27T10:00:44.577Z,1009.99
2017-04-27T10:01:54.249Z,1009.97
2017-04-27T10:03:04.553Z,1010.03
2017-04-27T10:04:14.532Z,1010.03
2017-04-27T10:05:25.091Z,1010.01
2017-04-27T10:06:35.401Z,1010.02
2017-04-27T10:07:45.497Z,1009.99
2017-04-27T10:08:55.821Z,1009.98
2017-04-27T10:10:06.155Z,1009.99
2017-04-27T10:11:16.806Z,1009.96
2017-04-27T10:12:27.133Z,1009.98
2017-04-27T10:13:36.811Z,1009.99
2017-04-27T10:14:46.832Z,1010
2017-04-27T10:15:57.176Z,1010.04
2017-04-27T10:17:07.732Z,1010
2017-04-27T10:18:18.046Z,1010.02
2017-04-27T10:19:28.345Z,1010.01
2017-04-27T10:20:38.654Z,1010.03
2017-04-27T10:21:48.630Z,1010.04
2017-04-27T10:22:59.186Z,1010.04
2017-04-27T10:24:08.869Z,1010.06
2017-04-27T10:25:19.167Z,1010.09
2017-04-27T10:26:29.472Z,1010.09
2017-04-27T10:27:39.500Z,1010.11
2017-04-27T10:28:50.066Z,1010.12
2017-04-27T10:30:00.353Z,1010.09
2017-04-27T10:31:10.678Z,1010.1
2017-04-27T10:32:20.665Z,1010.13
2017-04-27T10:33:30.960Z,1010.15
2017-04-27T10:34:41.522Z,1010.08
2017-04-27T10:35:51.532Z,1010.09
2017-04-27T10:37:01.524Z,1010.11
2017-04-27T10:38:11.826Z,1010.1
2017-04-27T10:39:21.811Z,1010.04
2017-04-27T10:40:32.342Z,1010
2017-04-27T10:41:42.627Z,1010
2017-04-27T10:42:52.934Z,1010.05
2017-04-27T10:44:03.238Z,1010.01
2017-04-27T10:45:13.255Z,1010
2017-04-27T10:46:23.803Z,1009.99
2017-04-27T10:47:34.107Z,1009.99
2017-04-27T10:48:43.786Z,1010.01
2017-04-27T10:49:54.082Z,1009.97
2017-04-27T10:51:04.411Z,1010
2017-04-27T10:52:14.954Z,1009.98
2017-04-27T10:53:25.265Z,1009.98
2017-04-27T10:54:35.262Z,1009.99
2017-04-27T10:55:44.935Z,1009.96
2017-04-27T10:56:54.962Z,1009.94
2017-04-27T10:58:05.524Z,1009.98
2017-04-27T10:59:15.538Z,1009.98
2017-04-27T11:00:25.535Z,1009.92
2017-04-27T11:01:35.529Z,1009.92
2017-04-27T11:02:45.865Z,1009.95
2017-04-27T11:03:56.135Z,1009.94
2017-04-27T11:05:06.469Z,1009.93
2017-04-27T11:06:16.776Z,1009.94
2017-04-27T11:07:26.773Z,1009.95
2017-04-27T11:08:36.446Z,1009.94
2017-04-27T11:09:47.007Z,1009.88
2017-04-27T11:10:56.994Z,1009.93
2017-04-27T11:12:07.325Z,1009.94
2017-04-27T11:13:17.629Z,1009.97
2017-04-27T11:14:27.995Z,1010.01
2017-04-27T11:15:38.541Z,1009.99
2017-04-27T11:16:48.528Z,1009.96
2017-04-27T11:17:58.867Z,1009.93
2017-04-27T11:19:09.177Z,1009.98
2017-04-27T11:20:19.511Z,1009.95
2017-04-27T11:21:30.018Z,1009.94
2017-04-27T11:22:40.278Z,1009.84
2017-04-27T11:23:50.589Z,1010
2017-04-27T11:25:00.961Z,1009.99
2017-04-27T11:26:11.271Z,1009.98
2017-04-27T11:27:21.505Z,1009.95
2017-04-27T11:28:31.809Z,1009.93
2017-04-27T11:29:41.502Z,1009.95
2017-04-27T11:30:51.175Z,1009.97
2017-04-27T11:32:01.497Z,1010.01
2017-04-27T11:33:12.048Z,1010
2017-04-27T11:34:22.406Z,1009.96
2017-04-27T11:35:32.403Z,1010.03
2017-04-27T11:36:42.722Z,1009.99
2017-04-27T11:37:59.743Z,1009.97
2017-04-27T11:39:09.989Z,1010.01
2017-04-27T11:40:19.988Z,1009.98
2017-04-27T11:41:29.989Z,1009.99
2017-04-27T11:42:39.976Z,1009.97
2017-04-27T11:43:49.980Z,1009.93
2017-04-27T11:45:00.526Z,1009.97
2017-04-27T11:46:10.510Z,1009.92
2017-04-27T11:47:20.517Z,1009.95
2017-04-27T11:48:30.818Z,1009.93
2017-04-27T11:49:41.132Z,1009.93
2017-04-27T11:50:51.444Z,1009.93
2017-04-27T11:52:01.751Z,1009.94
2017-04-27T11:53:12.068Z,1009.94
2017-04-27T11:54:22.382Z,1009.96
2017-04-27T11:55:32.424Z,1010.02
2017-04-27T11:56:42.971Z,1010.02
2017-04-27T11:57:53.490Z,1010.04
2017-04-27T11:59:03.943Z,1010.08
2017-04-27T12:00:14.244Z,1010.11
2017-04-27T12:01:24.269Z,1010.03
2017-04-27T12:02:34.842Z,1010
2017-04-27T12:03:44.837Z,1009.98
2017-04-27T12:04:54.848Z,1010.02
2017-04-27T12:06:05.204Z,1009.98
2017-04-27T12:07:15.201Z,1009.94
2017-04-27T12:08:25.769Z,1009.91
2017-04-27T12:09:35.444Z,1009.96
2017-04-27T12:10:45.761Z,1009.95
2017-04-27T12:11:56.050Z,1009.98
2017-04-27T12:13:06.197Z,1010
2017-04-27T12:14:16.487Z,1010.01
2017-04-27T12:15:26.825Z,1010
2017-04-27T12:16:37.192Z,1009.98
2017-04-27T12:17:47.517Z,1009.92
2017-04-27T12:18:57.505Z,1010
2017-04-27T12:20:07.742Z,1009.97
2017-04-27T12:21:18.039Z,1009.97
2017-04-27T12:22:28.362Z,1009.97
2017-04-27T12:23:38.683Z,1009.97
2017-04-27T12:24:48.984Z,1009.89
2017-04-27T12:25:59.594Z,1009.94
2017-04-27T12:27:09.595Z,1009.93
2017-04-27T12:28:19.606Z,1009.9
2017-04-27T12:29:29.586Z,1009.89
2017-04-27T12:30:39.277Z,1009.96
2017-04-27T12:31:49.897Z,1009.91
2017-04-27T12:33:00.210Z,1009.89
2017-04-27T12:34:10.509Z,1009.91
2017-04-27T12:35:20.530Z,1009.88
2017-04-27T12:36:30.864Z,1009.88
2017-04-27T12:37:40.587Z,1009.87
2017-04-27T12:38:50.939Z,1009.82
2017-04-27T12:40:01.256Z,1009.86
2017-04-27T12:41:11.548Z,1009.88
2017-04-27T12:42:21.867Z,1009.83
2017-04-27T12:43:32.110Z,1009.84
2017-04-27T12:44:42.092Z,1009.82
2017-04-27T12:45:52.114Z,1009.85
2017-04-27T12:47:02.121Z,1009.85
2017-04-27T12:48:12.152Z,1009.81
2017-04-27T12:49:22.385Z,1009.82
2017-04-27T12:50:32.697Z,1009.86
2017-04-27T12:51:43.013Z,1009.81
2017-04-27T12:52:53.313Z,1009.8
2017-04-27T12:54:03.555Z,1009.78
2017-04-27T12:55:14.951Z,1009.85
2017-04-27T12:56:25.275Z,1009.83
2017-04-27T12:57:35.258Z,1009.85
2017-04-27T12:58:45.564Z,1009.85
2017-04-27T12:59:55.232Z,1009.86
2017-04-27T13:01:05.789Z,1009.82
2017-04-27T13:02:15.808Z,1009.77
2017-04-27T13:03:26.117Z,1009.83
2017-04-27T13:04:36.404Z,1009.79
2017-04-27T13:05:46.707Z,1009.8
2017-04-27T13:06:57.317Z,1009.77
2017-04-27T13:08:07.885Z,1009.78
2017-04-27T13:09:18.195Z,1009.74
2017-04-27T13:10:28.212Z,1009.73
2017-04-27T13:11:38.500Z,1009.74
2017-04-27T13:12:49.135Z,1009.79
2017-04-27T13:13:59.433Z,1009.74
2017-04-27T13:15:09.726Z,1009.76
2017-04-27T13:16:20.026Z,1009.74
2017-04-27T13:17:30.337Z,1009.73
2017-04-27T13:18:40.580Z,1009.69
2017-04-27T13:19:50.594Z,1009.64
2017-04-27T13:21:01.140Z,1009.72
2017-04-27T13:26:21.423Z,1009.81
2017-04-27T13:27:31.732Z,1009.76
2017-04-27T13:28:42.033Z,1009.77
2017-04-27T13:29:52.014Z,1009.73
2017-04-27T13:31:02.488Z,1009.71
2017-04-27T13:32:13.024Z,1009.63
2017-04-27T13:33:22.703Z,1009.72
2017-04-27T13:34:33.005Z,1009.7
2017-04-27T13:35:43.319Z,1009.72
2017-04-27T13:36:53.617Z,1009.74
2017-04-27T13:38:04.232Z,1009.75
2017-04-27T13:39:14.526Z,1009.78
2017-04-27T13:40:24.208Z,1009.76
2017-04-27T13:41:34.507Z,1009.71
2017-04-27T13:42:44.818Z,1009.73
2017-04-27T13:43:55.412Z,1009.72
2017-04-27T13:45:05.398Z,1009.75
2017-04-27T13:46:15.447Z,1009.75
2017-04-27T13:47:25.742Z,1009.72
2017-04-27T13:48:36.055Z,1009.75
2017-04-27T13:49:46.300Z,1009.76
2017-04-27T13:50:56.625Z,1009.8
2017-04-27T13:52:06.614Z,1009.82
2017-04-27T13:53:16.592Z,1009.82
2017-04-27T13:54:26.580Z,1009.81
2017-04-27T13:55:37.111Z,1009.85
2017-04-27T13:56:47.400Z,1009.85
2017-04-27T13:57:57.082Z,1009.79
2017-04-27T13:59:07.422Z,1009.86
2017-04-27T14:00:17.717Z,1009.83
2017-04-27T14:01:28.270Z,1009.84
2017-04-27T14:02:38.556Z,1009.84
2017-04-27T14:03:48.549Z,1009.83
2017-04-27T14:04:58.528Z,1009.81
2017-04-27T14:06:08.828Z,1009.74
2017-04-27T14:07:19.367Z,1009.73
2017-04-27T14:08:29.337Z,1009.76
2017-04-27T14:09:39.314Z,1009.75
2017-04-27T14:10:49.307Z,1009.76
2017-04-27T14:11:59.602Z,1009.74
2017-04-27T14:13:09.854Z,1009.72
2017-04-27T14:14:20.139Z,1009.76
2017-04-27T14:15:30.451Z,1009.78
2017-04-27T14:16:40.751Z,1009.82
2017-04-27T14:17:51.045Z,1009.84